Time;durP1;ratioP1;P1;durP2;ratioP2;P2;SDS_P1;SDS_P2;PMS_P1;PMS_P2;Temp;Humidity;BMP_temperature;BMP_pressure;BME280_temperature;BME280_humidity;BME280_pressure;Samples;Min_cycle;Max_cycle;Signal;HPM_P1;HPM_P2
2022/06/22 00:01:09;;;;;;;1.30;1.20;;;15.10;73.60;;;;;;4994317;28;20022;-80
2022/06/22 00:03:35;;;;;;;1.50;1.23;;;15.10;74.10;;;;;;5003146;28;20108;-79
2022/06/22 00:06:02;;;;;;;1.30;1.20;;;15.10;75.20;;;;;;5015250;28;20265;-79
2022/06/22 00:08:35;;;;;;;1.85;1.42;;;15.00;74.30;;;;;;5008771;28;20120;-80
2022/06/22 00:11:11;;;;;;;3.03;1.20;;;15.00;74.20;;;;;;5008265;28;20107;-80
2022/06/22 00:13:44;;;;;;;4.03;1.33;;;15.00;74.80;;;;;;5004762;28;20397;-79
2022/06/22 00:16:18;;;;;;;1.42;1.30;;;14.90;75.90;;;;;;5004662;28;20053;-79
2022/06/22 00:18:47;;;;;;;2.13;1.30;;;14.90;75.90;;;;;;4999801;28;20046;-79
2022/06/22 00:21:39;;;;;;;1.27;1.17;;;14.80;75.70;;;;;;5012468;28;20380;-79
2022/06/22 00:24:23;;;;;;;1.83;1.20;;;14.80;76.10;;;;;;5003754;28;20043;-80
2022/06/22 00:27:07;;;;;;;1.25;1.17;;;14.80;75.70;;;;;;5011882;28;20025;-79
2022/06/22 00:29:35;;;;;;;1.70;1.60;;;14.80;75.80;;;;;;4993352;28;20102;-80
2022/06/22 00:32:25;;;;;;;1.60;1.13;;;14.70;75.80;;;;;;5012714;28;20033;-80
2022/06/22 00:34:51;;;;;;;1.77;1.40;;;14.70;76.00;;;;;;5013825;28;20044;-79
2022/06/22 00:37:22;;;;;;;1.55;1.20;;;14.70;75.80;;;;;;5008002;28;20030;-79
2022/06/22 00:39:54;;;;;;;1.73;1.38;;;14.60;75.90;;;;;;5002992;28;20465;-79
2022/06/22 00:42:34;;;;;;;1.88;1.30;;;14.60;76.10;;;;;;5028004;28;20088;-78
2022/06/22 00:45:02;;;;;;;3.17;1.40;;;14.50;76.90;;;;;;5013821;28;20095;-80
2022/06/22 00:47:44;;;;;;;2.20;1.48;;;14.50;77.50;;;;;;4997934;28;20473;-79
2022/06/22 00:50:09;;;;;;;1.27;1.15;;;14.50;77.40;;;;;;5014575;28;20038;-80
2022/06/22 00:52:39;;;;;;;2.42;1.40;;;14.40;77.50;;;;;;5014982;28;20069;-79
2022/06/22 00:55:25;;;;;;;3.58;1.30;;;14.40;78.30;;;;;;4998738;28;20043;-79
2022/06/22 00:57:59;;;;;;;;;;;14.40;78.00;;;;;;5014119;28;20392;-79
2022/06/22 01:00:28;;;;;;;1.30;1.20;;;14.30;77.50;;;;;;5008087;28;19972;-80
2022/06/22 01:03:14;;;;;;;1.60;1.25;;;14.30;77.70;;;;;;4999578;28;20042;-79
2022/06/22 01:05:40;;;;;;;1.58;1.38;;;14.30;77.50;;;;;;5005227;28;20030;-80
2022/06/22 01:08:38;;;;;;;2.92;1.52;;;14.20;77.70;;;;;;4997373;28;20037;-80
2022/06/22 01:12:16;;;;;;;2.28;2.08;;;14.20;77.90;;;;;;4999061;28;20160;-81
2022/06/22 01:13:54;;;;;;;1.55;1.45;;;14.20;78.00;;;;;;5011416;28;20042;-80
2022/06/22 01:16:35;;;;;;;1.60;1.50;;;14.10;78.50;;;;;;5003400;28;20038;-79
2022/06/22 01:19:19;;;;;;;3.15;1.58;;;14.10;78.90;;;;;;5003909;28;20049;-79
2022/06/22 01:22:01;;;;;;;1.45;1.35;;;14.10;79.10;;;;;;5006560;28;20065;-80
2022/06/22 01:25:13;;;;;;;2.13;1.50;;;14.00;79.30;;;;;;5003999;28;20037;-80
2022/06/22 01:27:41;;;;;;;3.17;1.40;;;14.00;79.00;;;;;;5008665;28;20038;-79
2022/06/22 01:30:33;;;;;;;1.85;1.70;;;14.00;79.70;;;;;;5007459;28;20034;-80
2022/06/22 01:33:05;;;;;;;2.40;1.48;;;13.90;79.10;;;;;;5001690;28;20044;-80
2022/06/22 01:35:33;;;;;;;2.30;1.42;;;13.90;79.00;;;;;;5043419;28;20084;-80
2022/06/22 01:38:09;;;;;;;1.60;1.50;;;13.90;79.80;;;;;;5008734;28;20064;-80
2022/06/22 01:40:51;;;;;;;2.92;1.60;;;13.90;80.40;;;;;;4998522;28;20567;-80
2022/06/22 01:43:36;;;;;;;1.73;1.63;;;13.90;80.50;;;;;;5002159;28;20105;-81
2022/06/22 01:46:19;;;;;;;1.58;1.48;;;13.90;80.60;;;;;;5013005;28;20018;-80
2022/06/22 01:49:00;;;;;;;1.60;1.50;;;13.80;80.60;;;;;;4998121;28;20019;-80
2022/06/22 01:51:33;;;;;;;1.50;1.40;;;13.80;80.50;;;;;;5008919;28;20022;-81
2022/06/22 01:54:05;;;;;;;3.45;1.67;;;13.80;80.40;;;;;;5008093;28;20037;-79
2022/06/22 01:56:48;;;;;;;2.15;1.42;;;13.80;80.30;;;;;;5001575;28;20390;-80
2022/06/22 01:59:32;;;;;;;2.72;1.40;;;13.80;80.70;;;;;;5019794;28;20039;-81
2022/06/22 02:02:04;;;;;;;2.78;1.55;;;13.80;81.00;;;;;;5020893;28;20029;-80
2022/06/22 02:04:35;;;;;;;1.98;1.38;;;13.80;81.00;;;;;;5005049;28;20038;-80
2022/06/22 02:10:38;;;;;;;1.80;1.70;;;13.80;80.60;;;;;;5009420;28;20041;-80
2022/06/22 02:13:39;;;;;;;1.60;1.45;;;13.80;80.70;;;;;;4971300;28;20035;-80
2022/06/22 02:16:37;;;;;;;1.92;1.50;;;13.80;80.60;;;;;;5014148;28;20040;-80
2022/06/22 02:19:03;;;;;;;1.95;1.48;;;13.80;81.00;;;;;;5006444;28;20034;-79
2022/06/22 02:21:41;;;;;;;1.50;1.10;;;13.80;80.80;;;;;;5008392;28;20038;-81
2022/06/22 02:24:34;;;;;;;1.25;1.15;;;13.80;80.40;;;;;;5000434;28;20038;-80
2022/06/22 02:27:02;;;;;;;1.10;1.00;;;13.80;80.20;;;;;;5023311;28;20049;-80
2022/06/22 02:29:34;;;;;;;1.08;1.08;;;13.80;80.00;;;;;;5014556;28;20527;-80
2022/06/22 02:32:04;;;;;;;1.40;1.30;;;13.80;80.20;;;;;;5010943;28;20065;-80
2022/06/22 02:34:32;;;;;;;1.63;1.15;;;13.90;80.10;;;;;;5012832;28;20046;-81
2022/06/22 02:37:00;;;;;;;1.08;1.08;;;13.90;79.90;;;;;;5011629;28;20038;-81
2022/06/22 02:39:29;;;;;;;2.53;1.27;;;13.90;79.70;;;;;;5006813;28;20086;-81
2022/06/22 02:44:42;;;;;;;1.20;1.10;;;13.90;79.80;;;;;;5004320;28;20035;-80
2022/06/22 02:47:21;;;;;;;2.35;1.13;;;13.80;79.40;;;;;;5007137;28;20026;-80
2022/06/22 02:50:11;;;;;;;1.20;1.10;;;13.80;79.30;;;;;;5010858;28;20086;-80
2022/06/22 02:52:47;;;;;;;1.42;1.10;;;13.80;79.20;;;;;;5007777;28;20128;-80
2022/06/22 02:55:17;;;;;;;1.38;1.27;;;13.80;79.50;;;;;;5000895;28;20527;-79
2022/06/22 02:57:50;;;;;;;1.73;1.27;;;13.80;79.40;;;;;;5010612;28;20500;-80
2022/06/22 03:00:21;;;;;;;1.38;1.08;;;13.80;79.30;;;;;;5010434;28;20030;-81
2022/06/22 03:02:49;;;;;;;1.42;1.33;;;13.80;79.20;;;;;;5008851;28;20083;-81
2022/06/22 03:05:18;;;;;;;1.63;1.25;;;13.80;79.20;;;;;;5012140;28;20062;-80
2022/06/22 03:07:50;;;;;;;1.90;1.40;;;13.80;79.20;;;;;;5007378;28;20101;-81
2022/06/22 03:10:28;;;;;;;1.42;1.13;;;13.80;79.60;;;;;;5008520;28;20037;-80
2022/06/22 03:12:56;;;;;;;2.40;1.30;;;13.80;79.50;;;;;;5006919;28;20065;-80
2022/06/22 03:15:24;;;;;;;1.77;1.50;;;13.80;80.10;;;;;;4994385;28;20037;-81
2022/06/22 03:17:50;;;;;;;1.40;1.30;;;13.80;80.00;;;;;;5012265;28;20505;-81
2022/06/22 03:20:24;;;;;;;1.65;1.40;;;13.80;80.40;;;;;;5009488;28;20030;-80
2022/06/22 03:22:58;;;;;;;2.10;1.40;;;13.80;80.40;;;;;;5010467;28;20034;-80
2022/06/22 03:25:50;;;;;;;3.17;1.35;;;13.70;80.70;;;;;;5007801;28;20132;-80
2022/06/22 03:28:21;;;;;;;2.08;1.30;;;13.70;81.20;;;;;;5004689;28;20045;-80
2022/06/22 03:30:54;;;;;;;1.42;1.25;;;13.70;81.60;;;;;;5010823;28;20047;-81
2022/06/22 03:33:44;;;;;;;1.52;1.42;;;13.70;81.30;;;;;;5009008;28;20038;-80
2022/06/22 03:36:21;;;;;;;1.50;1.38;;;13.70;81.20;;;;;;5019936;28;20116;-80
2022/06/22 03:38:53;;;;;;;1.55;1.20;;;13.70;81.10;;;;;;5009400;28;20081;-81
2022/06/22 03:41:28;;;;;;;2.05;1.50;;;13.70;80.90;;;;;;5008097;28;20030;-80
2022/06/22 03:43:58;;;;;;;2.00;1.33;;;13.80;81.50;;;;;;5008851;28;20034;-80
2022/06/22 03:46:27;;;;;;;1.55;1.45;;;13.80;83.00;;;;;;5008887;28;20096;-80
2022/06/22 03:49:13;;;;;;;1.63;1.40;;;13.80;83.60;;;;;;5000500;28;20037;-80
2022/06/22 03:52:00;;;;;;;1.20;1.20;;;13.90;83.70;;;;;;5005828;28;20037;-80
2022/06/22 03:54:32;;;;;;;1.38;1.30;;;13.90;83.10;;;;;;5002016;28;20030;-80
2022/06/22 03:57:03;;;;;;;5.35;1.48;;;13.90;83.20;;;;;;5007851;28;20041;-81
2022/06/22 03:59:31;;;;;;;1.65;1.50;;;13.90;82.90;;;;;;4982591;28;20507;-81
2022/06/22 04:01:57;;;;;;;2.50;1.60;;;13.90;83.10;;;;;;5017189;28;20374;-80
2022/06/22 04:04:24;;;;;;;1.60;1.20;;;14.00;83.10;;;;;;5008463;28;20552;-81
2022/06/22 04:06:53;;;;;;;1.45;1.35;;;14.00;83.70;;;;;;5009667;28;20034;-80
2022/06/22 04:09:25;;;;;;;2.05;1.50;;;14.00;83.60;;;;;;5011894;28;20034;-80
2022/06/22 04:12:03;;;;;;;1.55;1.45;;;14.00;83.70;;;;;;5008256;28;20117;-80
2022/06/22 04:14:41;;;;;;;1.33;1.23;;;14.10;84.20;;;;;;5010952;28;20044;-80
2022/06/22 04:17:16;;;;;;;3.45;1.67;;;14.10;84.80;;;;;;4993036;28;20113;-80
2022/06/22 04:19:54;;;;;;;1.97;1.53;;;14.20;82.30;;;;;;5009844;28;20125;-81
2022/06/22 04:22:23;;;;;;;1.77;1.67;;;14.20;83.30;;;;;;5011682;28;20270;-80
2022/06/22 04:25:02;;;;;;;1.90;1.63;;;14.30;82.60;;;;;;5004732;28;20041;-80
2022/06/22 04:27:38;;;;;;;1.75;1.60;;;14.40;82.20;;;;;;5006225;28;20511;-80
2022/06/22 04:30:09;;;;;;;1.70;1.60;;;14.50;83.60;;;;;;4990712;28;20038;-81
2022/06/22 04:32:44;;;;;;;1.73;1.63;;;14.60;83.50;;;;;;5019839;28;20040;-80
2022/06/22 04:35:28;;;;;;;2.05;1.20;;;14.70;84.80;;;;;;5006436;28;20034;-80
2022/06/22 04:38:06;;;;;;;1.77;1.40;;;14.80;83.90;;;;;;5005738;28;20402;-80
2022/06/22 04:40:56;;;;;;;2.03;1.90;;;14.90;83.80;;;;;;5007613;28;20033;-80
2022/06/22 04:43:22;;;;;;;2.08;1.50;;;15.00;84.90;;;;;;5006818;28;20021;-81
2022/06/22 04:45:49;;;;;;;1.65;1.40;;;15.00;83.10;;;;;;5026710;28;20018;-80
2022/06/22 04:48:21;;;;;;;2.20;1.60;;;15.10;81.50;;;;;;4993754;28;20038;-81
2022/06/22 04:50:50;;;;;;;1.65;1.42;;;15.20;80.20;;;;;;5009525;28;20026;-81
2022/06/22 04:53:27;;;;;;;2.20;1.52;;;15.40;80.20;;;;;;4997746;28;20061;-80
2022/06/22 04:55:53;;;;;;;1.67;1.35;;;15.60;78.10;;;;;;5030291;28;20029;-80
2022/06/22 04:58:41;;;;;;;1.95;1.60;;;15.80;76.80;;;;;;5004841;28;20397;-81
2022/06/22 05:01:15;;;;;;;1.85;1.70;;;16.00;75.80;;;;;;5012752;28;20033;-81
2022/06/22 05:03:41;;;;;;;3.17;1.48;;;16.20;76.00;;;;;;5013815;28;20041;-79
2022/06/22 05:06:16;;;;;;;5.88;1.60;;;16.40;75.80;;;;;;5006448;28;20475;-78
2022/06/22 05:08:53;;;;;;;3.67;1.80;;;16.50;75.00;;;;;;5002733;28;20401;-79
2022/06/22 05:11:24;;;;;;;2.53;1.40;;;16.60;74.50;;;;;;5002191;28;20085;-79
2022/06/22 05:13:54;;;;;;;1.55;1.20;;;16.70;73.50;;;;;;5011235;28;20485;-79
2022/06/22 05:16:24;;;;;;;3.10;1.50;;;16.90;73.90;;;;;;5011229;28;20049;-79
2022/06/22 05:18:51;;;;;;;1.70;1.58;;;17.00;74.50;;;;;;5014485;28;20026;-79
2022/06/22 05:21:33;;;;;;;1.52;1.40;;;17.10;72.70;;;;;;5012595;28;20053;-78
2022/06/22 05:24:04;;;;;;;1.77;1.33;;;17.20;73.10;;;;;;5000679;28;20414;-78
2022/06/22 05:26:31;;;;;;;1.60;1.45;;;17.30;71.60;;;;;;5008655;28;20041;-79
2022/06/22 05:29:04;;;;;;;6.32;4.28;;;17.50;71.00;;;;;;5011545;28;20034;-79
2022/06/22 05:31:32;;;;;;;3.47;3.17;;;17.60;71.30;;;;;;5013583;28;20421;-78
2022/06/22 05:34:02;;;;;;;1.70;1.60;;;17.80;70.60;;;;;;5015579;28;20108;-78
2022/06/22 05:36:31;;;;;;;3.42;1.55;;;18.20;69.90;;;;;;5002342;28;20040;-78
2022/06/22 05:38:59;;;;;;;3.05;1.58;;;18.50;67.80;;;;;;5011733;28;20036;-78
2022/06/22 05:41:30;;;;;;;1.50;1.35;;;18.70;68.30;;;;;;5015256;28;20049;-78
2022/06/22 05:44:06;;;;;;;1.88;1.60;;;19.00;65.90;;;;;;4997695;28;20080;-78
2022/06/22 05:46:32;;;;;;;2.30;1.60;;;19.10;66.20;;;;;;5015617;28;20030;-78
2022/06/22 05:48:58;;;;;;;3.35;1.83;;;19.30;65.50;;;;;;4996799;28;20038;-78
2022/06/22 05:51:58;;;;;;;1.52;1.42;;;19.60;65.20;;;;;;5007760;28;20030;-78
2022/06/22 05:54:33;;;;;;;5.18;1.40;;;19.90;64.80;;;;;;5022614;28;20061;-78
2022/06/22 05:57:05;;;;;;;1.70;1.60;;;20.00;66.00;;;;;;5005919;28;20054;-78
2022/06/22 05:59:50;;;;;;;5.72;1.90;;;19.90;63.10;;;;;;5007927;28;20023;-78
2022/06/22 06:02:38;;;;;;;2.38;1.50;;;19.90;64.80;;;;;;5020441;28;20026;-79
2022/06/22 06:05:17;;;;;;;1.50;1.40;;;20.00;63.00;;;;;;5006025;28;20527;-79
2022/06/22 06:07:52;;;;;;;2.08;1.60;;;20.10;61.90;;;;;;5011909;28;20034;-79
2022/06/22 06:10:26;;;;;;;1.70;1.60;;;20.10;63.10;;;;;;5017417;28;20030;-78
2022/06/22 06:13:19;;;;;;;1.85;1.30;;;20.00;62.30;;;;;;5011403;28;20034;-78
2022/06/22 06:15:47;;;;;;;1.50;1.30;;;20.00;63.10;;;;;;5029505;28;20030;-79
2022/06/22 06:18:18;;;;;;;2.13;1.88;;;20.00;62.90;;;;;;4997985;28;20358;-79
2022/06/22 06:20:48;;;;;;;1.85;1.73;;;19.90;63.10;;;;;;5012979;28;20054;-79
2022/06/22 06:23:33;;;;;;;2.95;1.42;;;19.90;62.70;;;;;;4982333;28;20058;-79
2022/06/22 06:29:14;;;;;;;2.40;1.50;;;20.00;64.80;;;;;;5018501;28;20038;-79
2022/06/22 06:32:13;;;;;;;2.33;1.70;;;20.20;63.00;;;;;;5015093;28;20037;-79
2022/06/22 06:34:56;;;;;;;3.97;1.70;;;20.40;63.30;;;;;;5014683;28;20038;-79
2022/06/22 06:37:36;;;;;;;1.70;1.50;;;20.90;64.30;;;;;;5019794;28;20038;-79
2022/06/22 06:40:03;;;;;;;5.18;1.67;;;21.10;62.10;;;;;;5018039;28;20066;-79
2022/06/22 06:42:44;;;;;;;1.33;1.20;;;21.10;60.30;;;;;;4998521;28;20031;-79
2022/06/22 06:45:17;;;;;;;2.20;1.77;;;21.20;62.50;;;;;;5014424;28;20030;-80
2022/06/22 06:47:48;;;;;;;2.35;1.50;;;21.60;60.40;;;;;;5012160;28;20482;-79
2022/06/22 06:50:41;;;;;;;1.77;1.67;;;22.20;60.30;;;;;;5008739;28;20048;-78
2022/06/22 06:53:32;;;;;;;3.42;1.90;;;22.50;58.30;;;;;;5008069;28;20042;-79
2022/06/22 06:56:20;;;;;;;3.28;1.88;;;22.80;56.60;;;;;;5009791;28;20034;-79
2022/06/22 06:58:51;;;;;;;1.40;1.30;;;23.10;56.70;;;;;;5013071;28;20622;-79
2022/06/22 07:01:22;;;;;;;2.50;1.40;;;23.20;56.20;;;;;;5017385;28;20034;-79
2022/06/22 07:03:51;;;;;;;2.40;1.55;;;23.30;56.30;;;;;;5011675;28;20106;-79
2022/06/22 07:06:18;;;;;;;1.40;1.25;;;23.10;55.80;;;;;;4998851;28;20548;-79
2022/06/22 07:08:51;;;;;;;1.80;1.48;;;23.10;58.70;;;;;;5002708;28;20030;-79
2022/06/22 07:11:31;;;;;;;1.60;1.50;;;23.40;58.30;;;;;;5020593;28;20022;-79
2022/06/22 07:14:06;;;;;;;2.75;1.20;;;23.80;57.90;;;;;;5019033;28;20042;-79
2022/06/22 07:16:32;;;;;;;2.05;1.75;;;24.20;56.80;;;;;;5004505;28;20074;-80
2022/06/22 07:19:24;;;;;;;7.13;1.90;;;24.70;55.30;;;;;;5001797;28;20031;-79
2022/06/22 07:22:11;;;;;;;3.97;1.58;;;24.90;53.90;;;;;;5002799;28;20033;-81
2022/06/22 07:25:01;;;;;;;1.88;1.50;;;24.90;53.70;;;;;;5009757;28;20065;-80
2022/06/22 07:27:37;;;;;;;1.90;1.77;;;25.10;52.20;;;;;;4995355;28;20032;-79
2022/06/22 07:30:12;;;;;;;2.00;1.77;;;25.20;52.40;;;;;;4996888;28;20025;-80
2022/06/22 07:33:06;;;;;;;2.03;1.50;;;25.10;55.20;;;;;;5003432;28;20058;-80
2022/06/22 07:35:58;;;;;;;1.67;1.48;;;25.50;52.50;;;;;;5011749;28;20029;-80
2022/06/22 07:39:01;;;;;;;2.65;1.70;;;25.80;52.20;;;;;;5004015;28;20137;-80
2022/06/22 07:41:29;;;;;;;4.13;1.67;;;25.90;51.70;;;;;;5003878;28;20054;-80
2022/06/22 07:43:59;;;;;;;2.17;1.50;;;26.30;50.40;;;;;;5001855;28;20042;-80
2022/06/22 07:46:33;;;;;;;2.40;1.50;;;26.40;51.00;;;;;;5010778;28;20459;-79
2022/06/22 07:49:09;;;;;;;2.33;1.73;;;26.50;53.60;;;;;;5009097;28;20045;-79
2022/06/22 07:51:40;;;;;;;1.58;1.48;;;27.00;51.60;;;;;;5008683;28;20034;-80
2022/06/22 07:54:10;;;;;;;2.15;1.67;;;27.30;48.90;;;;;;5011909;28;20038;-80
2022/06/22 07:56:44;;;;;;;1.95;1.60;;;27.20;47.50;;;;;;5014804;28;20639;-79
2022/06/22 07:59:19;;;;;;;3.83;1.67;;;27.20;50.10;;;;;;5025107;28;20033;-79
2022/06/22 08:01:47;;;;;;;1.63;1.52;;;27.40;48.10;;;;;;5011798;28;20034;-79
2022/06/22 08:04:47;;;;;;;3.83;1.58;;;27.30;48.70;;;;;;5013245;28;20396;-80
2022/06/22 08:07:21;;;;;;;2.97;1.88;;;27.50;50.00;;;;;;5008897;28;20049;-80
2022/06/22 08:09:54;;;;;;;1.60;1.50;;;27.50;48.20;;;;;;4993997;28;20070;-80
2022/06/22 08:12:38;;;;;;;1.88;1.60;;;26.80;48.40;;;;;;5005569;28;20030;-80
2022/06/22 08:15:08;;;;;;;1.60;1.50;;;26.30;49.00;;;;;;5008082;28;20062;-80
2022/06/22 08:17:43;;;;;;;2.33;1.40;;;26.30;51.10;;;;;;5008780;28;20091;-79
2022/06/22 08:20:14;;;;;;;3.92;1.77;;;26.50;51.10;;;;;;4996562;28;20125;-79
2022/06/22 08:22:42;;;;;;;2.28;1.60;;;26.50;50.10;;;;;;5004669;28;20069;-78
2022/06/22 08:25:10;;;;;;;1.98;1.88;;;26.40;52.60;;;;;;4986462;28;20072;-78
2022/06/22 08:27:37;;;;;;;1.58;1.48;;;26.30;51.00;;;;;;5001601;28;20034;-79
2022/06/22 08:30:04;;;;;;;3.80;2.30;;;26.30;51.40;;;;;;5002305;28;20857;-79
2022/06/22 08:32:35;;;;;;;2.08;1.90;;;26.40;52.20;;;;;;4991947;28;20469;-79
2022/06/22 08:35:08;;;;;;;4.07;1.42;;;26.50;55.00;;;;;;4996896;28;20041;-80
2022/06/22 08:38:07;;;;;;;2.45;1.90;;;26.70;53.10;;;;;;5007076;28;20516;-79
2022/06/22 08:40:52;;;;;;;3.28;1.73;;;26.90;51.60;;;;;;5005080;28;20141;-79
2022/06/22 08:43:42;;;;;;;3.03;1.60;;;26.80;49.70;;;;;;5011204;28;20033;-79
2022/06/22 08:46:27;;;;;;;2.53;1.38;;;26.70;51.60;;;;;;5011411;28;20018;-78
2022/06/22 08:49:18;;;;;;;1.92;1.50;;;26.70;51.20;;;;;;5008132;28;20049;-80
2022/06/22 08:52:10;;;;;;;1.85;1.70;;;26.80;52.00;;;;;;5018691;28;20391;-79
2022/06/22 08:54:45;;;;;;;1.90;1.30;;;27.10;52.40;;;;;;4995452;28;20542;-82
2022/06/22 08:57:48;;;;;;;2.50;1.75;;;27.30;50.50;;;;;;5024415;28;20029;-83
2022/06/22 09:00:35;;;;;;;1.38;1.27;;;27.60;50.00;;;;;;4995480;28;20129;-83
2022/06/22 09:03:24;;;;;;;2.67;1.60;;;27.90;49.90;;;;;;4984506;28;20321;-82
2022/06/22 09:06:12;;;;;;;1.83;1.27;;;28.20;49.50;;;;;;4996343;28;20411;-84
2022/06/22 09:09:16;;;;;;;1.40;1.30;;;28.60;47.70;;;;;;4996681;28;20033;-83
2022/06/22 09:12:20;;;;;;;2.65;1.50;;;29.00;46.60;;;;;;5007027;28;20129;-80
2022/06/22 09:15:04;;;;;;;2.17;1.48;;;28.70;47.40;;;;;;4996837;28;20033;-82
2022/06/22 09:17:55;;;;;;;1.40;1.30;;;28.60;47.40;;;;;;5012261;28;20399;-83
2022/06/22 09:20:33;;;;;;;1.50;1.40;;;28.50;49.30;;;;;;4995798;28;20034;-83
2022/06/22 09:23:25;;;;;;;2.67;1.58;;;28.40;46.80;;;;;;5031761;28;20025;-83
2022/06/22 09:26:06;;;;;;;2.53;1.60;;;28.10;48.90;;;;;;5028229;28;20037;-83
2022/06/22 09:28:45;;;;;;;5.38;1.77;;;27.90;49.00;;;;;;5021584;28;20511;-83
2022/06/22 09:32:10;;;;;;;2.47;1.42;;;27.80;48.90;;;;;;5016397;28;20038;-82
2022/06/22 09:35:00;;;;;;;2.88;1.80;;;27.70;49.20;;;;;;4999485;28;20647;-83
2022/06/22 09:37:44;;;;;;;1.95;1.63;;;27.50;48.70;;;;;;5030936;28;20030;-83
2022/06/22 09:40:41;;;;;;;2.55;1.90;;;27.00;50.10;;;;;;5032703;28;20025;-82
2022/06/22 09:43:33;;;;;;;1.58;1.48;;;27.00;50.70;;;;;;5032481;28;20468;-82
2022/06/22 09:46:11;;;;;;;1.70;1.40;;;26.90;50.50;;;;;;5004899;28;20449;-82
2022/06/22 09:49:18;;;;;;;3.00;1.80;;;26.90;51.20;;;;;;5011479;28;20188;-82
2022/06/22 09:52:27;;;;;;;2.20;1.88;;;26.70;49.40;;;;;;5032680;28;20029;-82
2022/06/22 09:58:49;;;;;;;2.08;1.88;;;26.40;51.20;;;;;;4990722;28;20537;-81
2022/06/22 10:01:17;;;;;;;3.70;2.25;;;26.40;52.10;;;;;;5009544;28;20051;-81
2022/06/22 10:04:01;;;;;;;2.88;1.92;;;26.40;51.50;;;;;;5021352;28;20121;-80
2022/06/22 10:06:59;;;;;;;1.95;1.73;;;26.30;52.10;;;;;;5028867;28;20039;-80
2022/06/22 10:09:53;;;;;;;2.10;1.90;;;26.40;54.00;;;;;;5023634;28;20056;-80
2022/06/22 10:12:25;;;;;;;2.17;1.80;;;26.50;52.60;;;;;;5028465;28;20053;-79
2022/06/22 10:15:13;;;;;;;2.65;1.98;;;26.50;51.90;;;;;;5021825;28;20038;-79
2022/06/22 10:18:14;;;;;;;3.50;2.08;;;26.60;53.30;;;;;;5007541;28;20125;-82
2022/06/22 10:20:55;;;;;;;3.95;1.73;;;26.60;52.10;;;;;;4988176;28;20029;-81
2022/06/22 10:24:02;;;;;;;2.50;2.30;;;26.70;51.00;;;;;;4989541;28;20030;-82
2022/06/22 10:26:34;;;;;;;3.42;2.03;;;26.70;51.20;;;;;;5020352;28;20065;-82
2022/06/22 10:29:21;;;;;;;3.10;2.35;;;26.70;51.90;;;;;;5017988;28;20033;-80
2022/06/22 10:32:24;;;;;;;2.78;2.17;;;26.80;51.90;;;;;;5009669;28;20030;-81
2022/06/22 10:35:26;;;;;;;2.88;2.33;;;26.90;52.10;;;;;;4987582;28;20056;-85
2022/06/22 10:38:29;;;;;;;4.00;1.83;;;27.00;51.10;;;;;;4981250;28;20042;-84
2022/06/22 10:47:24;;;;;;;2.97;1.80;;;27.20;53.50;;;;;;5007256;28;20034;-82
2022/06/22 10:50:05;;;;;;;2.10;2.00;;;27.40;53.30;;;;;;4986854;28;20038;-83
2022/06/22 10:52:52;;;;;;;3.03;1.95;;;27.30;49.20;;;;;;5024066;28;20040;-83
2022/06/22 10:55:34;;;;;;;4.15;1.70;;;27.10;49.30;;;;;;5009256;28;20033;-83
2022/06/22 10:58:47;;;;;;;4.60;2.70;;;27.00;51.50;;;;;;5007952;28;20684;-84
2022/06/22 11:01:42;;;;;;;3.63;1.98;;;27.10;52.30;;;;;;4981971;28;20461;-82
2022/06/22 11:04:42;;;;;;;2.90;1.63;;;27.20;50.50;;;;;;5002714;28;20610;-82
2022/06/22 11:07:39;;;;;;;2.70;1.70;;;27.40;53.70;;;;;;5007408;28;20128;-79
2022/06/22 11:10:19;;;;;;;2.28;1.90;;;27.50;49.60;;;;;;5001745;28;20041;-80
2022/06/22 11:13:10;;;;;;;2.13;1.83;;;27.50;49.20;;;;;;5009283;28;20041;-79
2022/06/22 11:15:53;;;;;;;2.20;2.00;;;27.50;51.50;;;;;;5011587;28;20077;-78
2022/06/22 11:18:45;;;;;;;2.70;2.10;;;27.40;50.90;;;;;;5008976;28;20036;-79
2022/06/22 11:21:36;;;;;;;1.60;1.50;;;27.40;52.80;;;;;;4986019;28;20676;-80
2022/06/22 11:24:05;;;;;;;3.30;1.98;;;27.50;49.60;;;;;;5014812;28;20039;-79
2022/06/22 11:32:45;;;;;;;1.70;1.60;;;27.50;51.80;;;;;;5005196;28;20089;-81
2022/06/22 11:35:23;;;;;;;3.95;1.80;;;27.70;50.50;;;;;;5005816;28;20589;-81
2022/06/22 11:38:31;;;;;;;2.63;2.20;;;27.90;51.40;;;;;;4992879;28;20098;-83
2022/06/22 11:41:09;;;;;;;2.80;1.98;;;28.30;53.30;;;;;;4979180;28;20026;-83
2022/06/22 11:44:13;;;;;;;2.22;2.03;;;28.50;49.70;;;;;;5004484;28;20562;-83
2022/06/22 11:46:50;;;;;;;3.08;1.73;;;28.60;47.80;;;;;;5012914;28;20564;-83
2022/06/22 11:49:31;;;;;;;2.28;1.90;;;28.40;47.70;;;;;;4989658;28;20137;-81
2022/06/22 11:52:30;;;;;;;2.00;1.80;;;28.40;49.90;;;;;;5001521;28;20118;-82
2022/06/22 11:55:19;;;;;;;2.88;2.00;;;28.50;51.70;;;;;;4987015;28;20026;-82
2022/06/22 11:58:16;;;;;;;2.58;1.80;;;28.70;51.00;;;;;;4998515;28;20030;-82
2022/06/22 12:00:55;;;;;;;4.03;2.08;;;29.00;50.80;;;;;;4991518;28;20547;-83
2022/06/22 12:03:43;;;;;;;2.85;1.80;;;29.10;48.90;;;;;;5008297;28;20053;-81
2022/06/22 12:06:45;;;;;;;3.22;2.03;;;29.20;49.00;;;;;;5026193;28;20068;-80
2022/06/22 12:09:33;;;;;;;3.97;2.05;;;29.20;50.10;;;;;;4990685;28;20089;-82
2022/06/22 12:12:36;;;;;;;2.67;1.83;;;29.40;49.70;;;;;;4999424;28;20034;-80
2022/06/22 12:15:09;;;;;;;3.65;1.70;;;29.50;48.80;;;;;;4995549;28;20056;-80
2022/06/22 12:17:58;;;;;;;3.40;1.70;;;29.50;46.10;;;;;;4978432;28;20034;-80
2022/06/22 12:20:47;;;;;;;2.20;2.00;;;29.70;47.60;;;;;;4998755;28;20030;-81
2022/06/22 12:23:48;;;;;;;1.85;1.75;;;29.90;47.80;;;;;;5012773;28;20072;-81
2022/06/22 12:26:31;;;;;;;1.75;1.65;;;29.90;49.60;;;;;;5009620;28;20037;-82
2022/06/22 12:29:12;;;;;;;2.42;1.33;;;30.00;47.00;;;;;;5007031;28;20030;-83
2022/06/22 12:32:13;;;;;;;2.47;1.85;;;30.00;47.90;;;;;;5003253;28;20034;-82
2022/06/22 12:34:48;;;;;;;2.00;1.80;;;30.10;49.40;;;;;;5004368;28;20038;-82
2022/06/22 12:37:26;;;;;;;1.95;1.75;;;30.20;49.00;;;;;;5006973;28;20057;-82
2022/06/22 12:40:01;;;;;;;2.80;1.67;;;30.50;47.80;;;;;;4980973;28;20026;-81
2022/06/22 12:42:41;;;;;;;3.28;1.88;;;30.90;46.40;;;;;;5023995;28;20093;-85
2022/06/22 12:45:34;;;;;;;2.10;1.63;;;31.20;45.50;;;;;;4995574;28;20034;-79
2022/06/22 12:48:45;;;;;;;1.85;1.60;;;31.50;42.20;;;;;;5008581;28;20022;-79
2022/06/22 12:51:18;;;;;;;1.88;1.77;;;31.10;41.80;;;;;;5018188;28;20708;-81
2022/06/22 12:54:02;;;;;;;1.88;1.77;;;30.90;44.20;;;;;;5004084;28;20046;-79
2022/06/22 12:56:37;;;;;;;3.90;1.83;;;30.80;43.90;;;;;;4999103;28;20286;-83
2022/06/22 12:59:22;;;;;;;1.80;1.52;;;30.50;44.40;;;;;;4985269;28;20433;-81
2022/06/22 13:01:49;;;;;;;1.83;1.73;;;30.30;43.40;;;;;;5012004;28;20116;-83
2022/06/22 13:04:27;;;;;;;1.77;1.67;;;30.00;44.60;;;;;;4991005;28;20042;-82
2022/06/22 13:07:04;;;;;;;5.00;2.00;;;30.00;46.20;;;;;;4990224;28;20292;-81
2022/06/22 13:09:31;;;;;;;1.63;1.50;;;30.10;45.00;;;;;;4997396;28;20481;-81
2022/06/22 13:12:00;;;;;;;1.60;1.50;;;30.00;46.50;;;;;;4997646;28;20099;-79
2022/06/22 13:14:35;;;;;;;1.77;1.52;;;30.00;45.00;;;;;;5011456;28;20026;-81
2022/06/22 13:17:22;;;;;;;;;;;29.90;42.70;;;;;;5040908;28;20095;-80
2022/06/22 13:20:16;;;;;;;2.05;1.52;;;29.80;45.60;;;;;;4992954;28;20269;-78
2022/06/22 13:23:01;;;;;;;1.98;1.60;;;29.90;45.60;;;;;;4995479;28;20449;-83
2022/06/22 13:25:42;;;;;;;1.58;1.40;;;29.80;45.40;;;;;;4997013;28;20109;-83
2022/06/22 13:28:30;;;;;;;1.73;1.63;;;29.90;44.60;;;;;;4993163;28;20040;-82
2022/06/22 13:31:01;;;;;;;1.60;1.50;;;29.90;43.70;;;;;;5000365;28;20034;-80
2022/06/22 13:33:51;;;;;;;3.15;1.70;;;30.00;45.30;;;;;;4986779;28;20072;-82
2022/06/22 13:36:36;;;;;;;1.80;1.70;;;30.30;44.60;;;;;;4991652;28;20038;-83
2022/06/22 13:39:33;;;;;;;1.73;1.42;;;30.60;43.50;;;;;;4970306;28;20030;-81
2022/06/22 13:42:10;;;;;;;1.85;1.45;;;30.90;43.50;;;;;;5000002;28;20030;-79
2022/06/22 13:44:35;;;;;;;3.80;1.40;;;31.20;42.40;;;;;;4996020;28;20042;-81
2022/06/22 13:47:29;;;;;;;2.35;1.50;;;31.20;42.80;;;;;;5005939;28;20058;-82
2022/06/22 13:50:18;;;;;;;2.03;1.40;;;31.20;42.20;;;;;;5000627;28;20045;-79
2022/06/22 13:52:47;;;;;;;1.70;1.60;;;31.10;44.40;;;;;;5003980;28;20042;-83
2022/06/22 13:56:06;;;;;;;1.60;1.50;;;31.10;44.40;;;;;;4970148;28;20069;-83
2022/06/22 13:58:41;;;;;;;1.98;1.80;;;31.10;42.70;;;;;;4982107;28;20501;-82
2022/06/22 14:01:19;;;;;;;1.55;1.38;;;31.10;42.40;;;;;;5017104;28;20033;-82
2022/06/22 14:04:10;;;;;;;1.50;1.40;;;31.00;44.10;;;;;;5004216;28;20036;-83
2022/06/22 14:07:08;;;;;;;1.45;1.35;;;30.90;45.70;;;;;;5015117;28;20034;-83
2022/06/22 14:09:40;;;;;;;2.00;1.90;;;30.70;47.70;;;;;;5003695;28;20433;-80
2022/06/22 14:12:51;;;;;;;1.42;1.27;;;30.40;45.10;;;;;;5006413;28;20073;-81
2022/06/22 14:15:25;;;;;;;1.60;1.50;;;30.20;44.00;;;;;;5011517;28;20102;-82
2022/06/22 14:18:27;;;;;;;3.45;1.73;;;29.70;42.70;;;;;;4998568;28;20420;-83
2022/06/22 14:21:20;;;;;;;1.65;1.40;;;29.30;43.10;;;;;;4983647;28;20032;-81